Time;durP1;ratioP1;P1;durP2;ratioP2;P2;SDS_P1;SDS_P2;PMS_P1;PMS_P2;Temp;Humidity;BMP_temperature;BMP_pressure;BME280_temperature;BME280_humidity;BME280_pressure;Samples;Min_cycle;Max_cycle;Signal;HPM_P1;HPM_P2
2022/12/29 00:01:41;;;;;;;8.23;5.60;;;;;;;1.13;100.00;95937.66;5067831;28;20859;-73
2022/12/29 00:04:12;;;;;;;4.87;3.53;;;;;;;1.03;100.00;95935.94;5058778;28;20480;-73
2022/12/29 00:06:42;;;;;;;5.10;3.70;;;;;;;1.08;100.00;95933.28;5071285;28;20690;-73
2022/12/29 00:09:13;;;;;;;3.40;2.80;;;;;;;1.34;100.00;95935.66;5071646;28;20545;-73
2022/12/29 00:11:39;;;;;;;3.30;3.00;;;;;;;1.53;100.00;95938.28;5058050;28;20420;-73
2022/12/29 00:16:57;;;;;;;2.73;2.50;;;;;;;1.50;100.00;95912.81;5060477;28;20919;-73
2022/12/29 00:36:36;;;;;;;2.20;2.10;;;;;;;1.69;100.00;95935.22;5068409;28;21020;-73
2022/12/29 00:44:04;;;;;;;3.10;2.90;;;;;;;1.65;100.00;95923.81;5073200;28;20428;-72
2022/12/29 00:45:08;;;;;;;2.50;2.30;;;;;;;1.62;100.00;95900.94;5067488;28;20916;-73
2022/12/29 00:47:34;;;;;;;2.83;2.53;;;;;;;1.73;100.00;95914.59;5059745;28;20432;-73
2022/12/29 00:50:01;;;;;;;3.50;2.80;;;;;;;1.77;100.00;95913.78;5063484;28;20543;-73
2022/12/29 00:52:28;;;;;;;3.17;2.87;;;;;;;1.80;100.00;95912.44;5056372;28;20530;-73
2022/12/29 00:54:54;;;;;;;2.80;2.60;;;;;;;1.52;100.00;95901.06;5079726;28;20455;-73
2022/12/29 00:57:21;;;;;;;2.90;2.60;;;;;;;1.62;100.00;95913.19;5067564;28;20421;-73
2022/12/29 00:59:48;;;;;;;3.00;2.77;;;;;;;1.47;100.00;95896.69;5049886;28;20442;-73
2022/12/29 01:02:15;;;;;;;3.03;2.77;;;;;;;1.57;100.00;95913.22;5059622;28;20432;-73
2022/12/29 01:04:42;;;;;;;2.57;2.30;;;;;;;1.50;100.00;95897.97;5056347;28;20467;-73
2022/12/29 01:07:09;;;;;;;3.20;2.30;;;;;;;1.56;100.00;95915.06;5056203;28;20435;-72
2022/12/29 01:12:40;;;;;;;2.90;2.70;;;;;;;1.28;100.00;95888.03;5063163;28;20485;-72
2022/12/29 01:15:11;;;;;;;2.70;2.50;;;;;;;1.43;100.00;95913.91;5052434;28;20442;-73
2022/12/29 01:17:38;;;;;;;3.27;3.07;;;;;;;1.21;100.00;95877.19;5072091;28;20517;-72
2022/12/29 01:20:06;;;;;;;2.60;2.27;;;;;;;1.50;100.00;95903.16;5043088;28;20475;-72
2022/12/29 01:22:34;;;;;;;2.53;2.33;;;;;;;1.33;100.00;95874.19;5073452;28;21039;-72
2022/12/29 01:25:00;;;;;;;2.90;2.67;;;;;;;1.48;100.00;95894.88;5085235;28;20441;-72
2022/12/29 01:27:27;;;;;;;2.67;2.47;;;;;;;1.21;100.00;95866.78;5072442;28;20430;-72
2022/12/29 01:29:54;;;;;;;3.00;2.80;;;;;;;1.44;100.00;95896.44;5072247;28;20506;-73
2022/12/29 01:32:20;;;;;;;3.23;2.83;;;;;;;1.30;100.00;95880.72;5059238;28;20869;-72
2022/12/29 01:34:47;;;;;;;4.57;3.03;;;;;;;1.67;100.00;95900.09;5047887;28;20545;-73
2022/12/29 01:37:14;;;;;;;2.80;2.60;;;;;;;1.57;100.00;95871.56;5065405;28;20956;-74
2022/12/29 01:39:40;;;;;;;3.10;2.80;;;;;;;1.68;100.00;95855.50;5043655;28;20782;-73
2022/12/29 01:42:16;;;;;;;5.87;2.97;;;;;;;1.86;100.00;95872.22;5058784;28;20926;-74
2022/12/29 01:44:48;;;;;;;3.73;3.30;;;;;;;2.00;100.00;95890.53;5071999;28;20459;-74
2022/12/29 01:47:23;;;;;;;2.90;2.63;;;;;;;1.90;100.00;95901.88;5057599;28;20435;-73
2022/12/29 01:49:53;;;;;;;4.63;3.17;;;;;;;1.64;100.00;95872.78;5063731;28;20887;-73
2022/12/29 01:52:22;;;;;;;5.33;2.87;;;;;;;1.39;100.00;95878.28;5071890;28;20444;-74
2022/12/29 01:54:53;;;;;;;2.50;2.30;;;;;;;1.33;100.00;95893.19;5071790;28;20480;-74
2022/12/29 01:57:34;;;;;;;3.50;2.93;;;;;;;1.31;100.00;95881.50;5058327;28;20959;-74
2022/12/29 02:00:13;;;;;;;3.53;3.23;;;;;;;1.25;100.00;95867.78;5069952;28;20792;-74
2022/12/29 02:02:44;;;;;;;2.77;2.57;;;;;;;1.33;100.00;95845.53;5061936;28;20440;-74
2022/12/29 02:05:21;;;;;;;3.63;2.73;;;;;;;1.31;100.00;95835.41;5071648;28;20475;-74
2022/12/29 02:07:50;;;;;;;4.07;3.53;;;;;;;1.56;100.00;95860.38;5071629;28;20440;-73
2022/12/29 02:10:20;;;;;;;3.00;2.80;;;;;;;1.41;100.00;95829.31;5065280;28;20496;-74
2022/12/29 02:12:47;;;;;;;3.77;3.00;;;;;;;1.41;100.00;95826.69;5065479;28;21014;-74
2022/12/29 02:15:15;;;;;;;3.07;2.87;;;;;;;1.46;100.00;95843.03;5067158;28;20467;-74
2022/12/29 02:18:00;;;;;;;3.40;3.10;;;;;;;1.48;100.00;95848.75;5072711;28;20424;-74
2022/12/29 02:20:45;;;;;;;5.30;3.57;;;;;;;1.38;100.00;95815.00;5071377;28;20515;-74
2022/12/29 02:23:41;;;;;;;3.47;3.00;;;;;;;1.48;100.00;95833.13;5071074;28;21016;-74
2022/12/29 02:26:24;;;;;;;4.13;3.33;;;;;;;1.41;100.00;95830.06;5067155;28;20636;-74
2022/12/29 02:29:25;;;;;;;3.70;3.33;;;;;;;1.43;100.00;95829.78;5064267;28;20543;-74
2022/12/29 02:31:58;;;;;;;3.80;3.47;;;;;;;1.65;100.00;95837.84;5062435;28;20439;-74
2022/12/29 02:34:46;;;;;;;3.97;3.47;;;;;;;1.69;100.00;95833.63;5070978;28;20490;-74
2022/12/29 02:37:19;;;;;;;4.70;2.93;;;;;;;1.81;100.00;95835.03;5052750;28;20489;-74
2022/12/29 02:39:53;;;;;;;4.17;3.77;;;;;;;1.86;100.00;95838.34;5060119;28;20455;-74
2022/12/29 02:42:47;;;;;;;3.93;3.60;;;;;;;1.91;100.00;95837.50;5056908;28;20454;-74
2022/12/29 02:45:20;;;;;;;5.70;3.47;;;;;;;1.95;100.00;95833.25;5069902;28;20881;-74
2022/12/29 02:48:01;;;;;;;6.33;3.03;;;;;;;1.87;100.00;95806.03;5042927;28;20455;-74
2022/12/29 02:50:39;;;;;;;6.20;3.57;;;;;;;1.98;100.00;95836.06;5070743;28;20530;-74
2022/12/29 02:53:10;;;;;;;5.70;4.00;;;;;;;2.02;100.00;95839.69;5062039;28;20478;-74
2022/12/29 02:55:37;;;;;;;8.23;5.83;;;;;;;1.88;100.00;95831.03;5064659;28;20429;-74
2022/12/29 02:58:08;;;;;;;8.30;3.90;;;;;;;2.23;100.00;95831.53;5047707;28;20446;-74
2022/12/29 03:01:07;;;;;;;4.97;2.70;;;;;;;2.69;100.00;95828.19;5057778;28;20847;-74
2022/12/29 03:03:58;;;;;;;3.87;2.53;;;;;;;3.08;100.00;95831.13;5028972;28;20468;-74
2022/12/29 03:06:35;;;;;;;2.40;2.20;;;;;;;3.38;100.00;95834.97;5065383;28;20927;-74
2022/12/29 03:09:17;;;;;;;2.27;2.17;;;;;;;3.54;100.00;95833.59;5061104;28;20458;-74
2022/12/29 03:12:08;;;;;;;3.27;2.63;;;;;;;3.59;100.00;95824.09;5070160;28;20440;-74
2022/12/29 03:18:05;;;;;;;4.97;2.03;;;;;;;3.80;100.00;95835.69;5070229;28;20443;-74
2022/12/29 03:20:47;;;;;;;2.20;2.10;;;;;;;3.77;100.00;95834.44;5061278;28;20437;-74
2022/12/29 03:23:15;;;;;;;2.27;2.07;;;;;;;3.83;100.00;95829.84;5073408;28;20474;-74
2022/12/29 03:25:50;;;;;;;2.70;2.40;;;;;;;3.87;100.00;95822.97;5053394;28;20509;-74
2022/12/29 03:28:29;;;;;;;4.27;2.63;;;;;;;3.96;100.00;95839.50;5042139;28;20534;-74
2022/12/29 03:30:58;;;;;;;2.90;2.20;;;;;;;3.78;100.00;95817.69;5056378;28;20482;-74
2022/12/29 03:33:29;;;;;;;3.50;2.63;;;;;;;3.90;100.00;95825.00;5069646;28;20479;-74
2022/12/29 03:36:04;;;;;;;2.17;1.97;;;;;;;3.97;100.00;95838.44;5067820;28;20440;-74
2022/12/29 03:38:40;;;;;;;5.33;2.33;;;;;;;4.10;100.00;95844.69;5069955;28;20440;-74
2022/12/29 03:41:12;;;;;;;2.37;2.17;;;;;;;4.05;100.00;95840.34;5039756;28;20435;-74
2022/12/29 03:43:39;;;;;;;2.07;1.97;;;;;;;3.97;100.00;95829.81;5059518;28;20975;-74
2022/12/29 03:46:06;;;;;;;2.23;2.03;;;;;;;4.01;100.00;95847.25;5046598;28;20984;-73
2022/12/29 03:48:33;;;;;;;3.23;2.20;;;;;;;3.70;100.00;95784.38;5063375;28;20475;-75
2022/12/29 03:51:00;;;;;;;3.67;2.43;;;;;;;3.94;100.00;95833.81;5055920;28;20479;-74
2022/12/29 03:53:27;;;;;;;4.50;2.20;;;;;;;4.01;100.00;95836.78;5069642;28;20452;-74
2022/12/29 03:55:54;;;;;;;2.90;2.10;;;;;;;4.03;100.00;95831.25;5069744;28;20432;-74
2022/12/29 03:58:21;;;;;;;2.90;2.30;;;;;;;3.98;100.00;95839.22;5059369;28;20848;-74
2022/12/29 04:00:56;;;;;;;3.20;2.53;;;;;;;4.07;100.00;95838.22;5061445;28;20428;-74
2022/12/29 04:03:23;;;;;;;3.60;2.13;;;;;;;3.93;100.00;95816.56;5062830;28;20452;-74
2022/12/29 04:05:53;;;;;;;2.40;2.20;;;;;;;4.05;100.00;95834.34;5058889;28;20925;-74
2022/12/29 04:08:22;;;;;;;3.27;2.97;;;;;;;4.00;100.00;95840.44;5044090;28;20838;-74
2022/12/29 04:10:49;;;;;;;4.00;3.10;;;;;;;4.06;100.00;95844.53;5069506;28;20474;-74
2022/12/29 04:13:18;;;;;;;2.60;2.40;;;;;;;3.95;100.00;95818.88;5074525;28;20464;-74
2022/12/29 04:15:45;;;;;;;4.07;2.70;;;;;;;4.03;100.00;95820.81;5061017;28;20444;-74
2022/12/29 04:18:12;;;;;;;2.70;2.50;;;;;;;4.08;100.00;95815.44;5052860;28;20451;-74
2022/12/29 04:23:26;;;;;;;3.50;2.80;;;;;;;3.91;100.00;95802.25;5074174;28;20978;-74
2022/12/29 04:25:53;;;;;;;4.20;2.93;;;;;;;4.10;100.00;95826.38;5050669;28;20472;-74
2022/12/29 04:28:19;;;;;;;2.87;2.67;;;;;;;3.98;100.00;95805.97;5064582;28;20432;-74
2022/12/29 04:30:55;;;;;;;3.60;2.60;;;;;;;4.12;100.00;95819.00;5068336;28;20467;-74
2022/12/29 04:33:25;;;;;;;4.00;3.10;;;;;;;4.21;100.00;95834.78;5059291;28;20539;-74
2022/12/29 04:35:53;;;;;;;3.40;3.03;;;;;;;4.02;100.00;95825.25;5065823;28;20439;-74
2022/12/29 04:38:23;;;;;;;3.17;2.87;;;;;;;4.01;100.00;95794.94;5043582;28;20535;-74
2022/12/29 04:40:53;;;;;;;2.77;2.50;;;;;;;4.24;100.00;95839.41;5049183;28;20468;-74
2022/12/29 04:43:22;;;;;;;2.47;2.27;;;;;;;4.07;100.00;95790.38;5069130;28;20845;-74
2022/12/29 04:46:11;;;;;;;2.23;2.03;;;;;;;4.18;100.00;95807.38;5057635;28;20845;-74
2022/12/29 04:48:55;;;;;;;4.60;3.00;;;;;;;4.15;100.00;95813.22;5057553;28;20436;-74
2022/12/29 04:51:40;;;;;;;3.10;2.80;;;;;;;4.10;100.00;95806.22;5057095;28;20460;-74
2022/12/29 04:54:09;;;;;;;4.50;2.60;;;;;;;4.29;100.00;95813.16;5055930;28;20800;-74
2022/12/29 04:56:36;;;;;;;2.60;2.40;;;;;;;4.26;100.00;95818.94;5039151;28;20448;-75
2022/12/29 04:59:03;;;;;;;2.60;2.40;;;;;;;4.11;100.00;95788.69;5069435;28;20440;-74
2022/12/29 05:01:30;;;;;;;2.90;2.57;;;;;;;4.38;100.00;95825.19;5055478;28;20464;-74
2022/12/29 05:03:57;;;;;;;2.90;2.70;;;;;;;4.37;100.00;95830.72;5066598;28;20452;-74
2022/12/29 05:06:24;;;;;;;2.40;2.20;;;;;;;4.11;100.00;95799.16;5066418;28;20464;-74
2022/12/29 05:08:51;;;;;;;5.10;2.50;;;;;;;4.11;100.00;95802.53;5056070;28;20435;-74
2022/12/29 05:11:17;;;;;;;3.07;2.20;;;;;;;4.24;100.00;95810.63;5048607;28;20888;-74
2022/12/29 05:13:46;;;;;;;2.33;1.90;;;;;;;4.41;100.00;95829.06;5081554;28;20821;-74
2022/12/29 05:16:15;;;;;;;2.70;2.50;;;;;;;4.45;100.00;95822.94;5059080;28;20440;-74
2022/12/29 05:18:43;;;;;;;2.70;2.50;;;;;;;4.37;100.00;95815.78;5046718;28;20434;-74
2022/12/29 05:21:10;;;;;;;7.33;2.20;;;;;;;4.44;100.00;95826.63;5068554;28;20859;-74
2022/12/29 05:23:39;;;;;;;2.60;2.23;;;;;;;4.31;100.00;95795.28;5045854;28;20461;-74
2022/12/29 05:26:05;;;;;;;3.80;2.10;;;;;;;4.01;100.00;95745.25;5069358;28;20531;-74
2022/12/29 05:28:53;;;;;;;2.43;2.27;;;;;;;4.17;100.00;95808.44;5072419;28;20447;-74
2022/12/29 05:31:21;;;;;;;2.60;2.37;;;;;;;4.07;100.00;95819.13;5072132;28;20464;-74
2022/12/29 05:33:48;;;;;;;2.43;2.23;;;;;;;4.11;100.00;95815.63;5055296;28;20467;-74
2022/12/29 05:36:15;;;;;;;2.40;2.23;;;;;;;3.92;100.00;95788.09;5042826;28;20828;-74
2022/12/29 05:38:46;;;;;;;3.87;2.60;;;;;;;4.23;100.00;95809.09;5077680;28;20433;-74
2022/12/29 05:41:13;;;;;;;2.53;2.33;;;;;;;4.26;100.00;95806.63;5064651;28;21075;-74
2022/12/29 05:43:58;;;;;;;2.97;2.67;;;;;;;4.41;100.00;95810.75;5069633;28;20447;-74
2022/12/29 05:46:52;;;;;;;4.03;2.70;;;;;;;4.21;100.00;95798.91;5070976;28;20455;-74
2022/12/29 05:49:29;;;;;;;3.03;2.10;;;;;;;4.29;100.00;95797.44;5061224;28;20813;-74
2022/12/29 05:52:25;;;;;;;8.97;2.20;;;;;;;4.57;100.00;95837.34;5058668;28;20424;-74
2022/12/29 05:54:52;;;;;;;10.80;7.87;;;;;;;4.57;100.00;95839.94;5071691;28;20547;-74
2022/12/29 05:57:21;;;;;;;3.33;2.67;;;;;;;4.43;100.00;95826.94;5062524;28;20543;-74
2022/12/29 05:59:56;;;;;;;4.13;2.13;;;;;;;4.39;100.00;95802.41;5054919;28;20448;-74
2022/12/29 06:02:23;;;;;;;3.77;1.90;;;;;;;4.30;100.00;95801.59;5046795;28;20453;-74
2022/12/29 06:04:50;;;;;;;6.37;2.40;;;;;;;4.27;100.00;95821.25;5067386;28;20854;-74
2022/12/29 06:07:17;;;;;;;3.30;2.90;;;;;;;4.36;100.00;95826.56;5071650;28;20439;-74
2022/12/29 06:09:45;;;;;;;5.13;2.80;;;;;;;4.27;100.00;95795.09;5059043;28;20436;-74
2022/12/29 06:12:12;;;;;;;5.50;2.47;;;;;;;4.40;100.00;95812.56;5071094;28;20460;-74
2022/12/29 06:14:42;;;;;;;2.33;2.13;;;;;;;4.22;100.00;95776.16;5083557;28;20464;-74
2022/12/29 06:17:09;;;;;;;2.23;2.03;;;;;;;4.07;100.00;95785.91;5071079;28;20479;-74
2022/12/29 06:19:36;;;;;;;2.90;2.20;;;;;;;4.24;100.00;95792.31;5074362;28;20540;-74
2022/12/29 06:22:03;;;;;;;5.30;2.43;;;;;;;4.24;100.00;95818.47;5063205;28;20533;-74
2022/12/29 06:24:32;;;;;;;5.30;2.63;;;;;;;4.04;100.00;95794.34;5067013;28;20469;-74
2022/12/29 06:26:59;;;;;;;2.37;2.17;;;;;;;4.12;100.00;95806.69;5061691;28;20475;-74
2022/12/29 06:29:26;;;;;;;2.60;2.23;;;;;;;3.86;100.00;95793.44;5041049;28;20440;-74
2022/12/29 06:31:57;;;;;;;2.57;2.37;;;;;;;4.01;100.00;95797.56;5070825;28;20467;-74
2022/12/29 06:34:25;;;;;;;3.97;2.67;;;;;;;4.20;100.00;95822.78;5049419;28;20469;-74
2022/12/29 06:36:51;;;;;;;3.83;2.00;;;;;;;3.74;100.00;95774.09;5062313;28;20552;-74
2022/12/29 06:39:18;;;;;;;3.40;3.10;;;;;;;3.78;100.00;95783.69;5054090;28;20440;-74
2022/12/29 06:41:58;;;;;;;2.77;2.17;;;;;;;4.13;100.00;95829.16;5070690;28;20432;-75
2022/12/29 06:44:45;;;;;;;4.43;2.30;;;;;;;4.07;100.00;95806.84;5070643;28;20478;-74
2022/12/29 06:47:12;;;;;;;3.50;2.77;;;;;;;3.99;100.00;95815.38;5070405;28;20932;-73
2022/12/29 06:49:38;;;;;;;2.40;2.10;;;;;;;3.95;100.00;95811.03;5070527;28;20490;-74
2022/12/29 06:52:05;;;;;;;2.67;1.80;;;;;;;3.88;100.00;95793.16;5056801;28;20464;-73
2022/12/29 06:54:38;;;;;;;2.73;2.00;;;;;;;3.86;100.00;95798.66;5059485;28;20465;-74
2022/12/29 06:57:05;;;;;;;2.60;2.17;;;;;;;3.81;100.00;95792.78;5047595;28;20436;-74
2022/12/29 06:59:31;;;;;;;10.23;4.10;;;;;;;3.99;100.00;95823.22;5061543;28;20436;-74
2022/12/29 07:01:58;;;;;;;3.13;2.77;;;;;;;3.75;100.00;95794.75;5058530;28;20462;-74
2022/12/29 07:04:25;;;;;;;3.10;2.17;;;;;;;3.83;100.00;95804.50;5059963;28;20484;-74
2022/12/29 07:06:51;;;;;;;3.87;2.40;;;;;;;4.02;100.00;95821.88;5068203;28;20553;-74
2022/12/29 07:09:18;;;;;;;2.00;1.90;;;;;;;3.59;100.00;95767.38;5042574;28;20441;-74
2022/12/29 07:11:45;;;;;;;3.30;2.10;;;;;;;3.91;100.00;95831.78;5067982;28;20474;-74
2022/12/29 07:14:12;;;;;;;2.03;1.93;;;;;;;3.67;100.00;95786.81;5065871;28;20459;-74
2022/12/29 07:16:38;;;;;;;2.60;2.40;;;;;;;3.96;100.00;95818.59;5072078;28;20811;-74
2022/12/29 07:19:05;;;;;;;2.80;2.60;;;;;;;4.00;100.00;95826.59;5040991;28;20433;-73
2022/12/29 07:21:32;;;;;;;2.53;2.30;;;;;;;3.80;100.00;95792.00;5070451;28;20493;-74
2022/12/29 07:23:59;;;;;;;4.90;2.10;;;;;;;3.74;100.00;95800.25;5069911;28;20551;-74
2022/12/29 07:26:26;;;;;;;2.63;2.43;;;;;;;3.93;100.00;95827.03;5063507;28;20431;-74
2022/12/29 07:29:01;;;;;;;3.17;2.43;;;;;;;3.68;100.00;95810.06;5063241;28;20432;-74
2022/12/29 07:31:27;;;;;;;2.30;2.03;;;;;;;3.54;100.00;95802.25;5057236;28;20456;-74
2022/12/29 07:33:54;;;;;;;5.37;3.30;;;;;;;3.60;100.00;95799.50;5050616;28;20469;-74
2022/12/29 07:36:20;;;;;;;5.40;3.63;;;;;;;3.64;100.00;95803.09;5062008;28;20445;-74
2022/12/29 07:38:47;;;;;;;2.07;1.87;;;;;;;3.65;100.00;95809.88;5063247;28;20432;-74
2022/12/29 07:41:14;;;;;;;2.90;2.17;;;;;;;3.73;100.00;95837.91;5040854;28;20432;-74
2022/12/29 07:43:40;;;;;;;1.97;1.87;;;;;;;3.44;100.00;95805.06;5075628;28;20460;-74
2022/12/29 07:46:27;;;;;;;3.37;2.40;;;;;;;3.50;100.00;95819.59;5049337;28;20440;-74
2022/12/29 07:49:14;;;;;;;1.80;1.70;;;;;;;3.50;100.00;95829.25;5056735;28;20923;-74
2022/12/29 07:51:40;;;;;;;3.90;2.43;;;;;;;3.45;100.00;95842.41;5069769;28;20484;-74
2022/12/29 07:54:09;;;;;;;3.90;2.47;;;;;;;3.40;100.00;95839.91;5039706;28;20459;-74
2022/12/29 07:56:35;;;;;;;2.07;1.87;;;;;;;3.55;100.00;95874.34;5059506;28;20916;-74
2022/12/29 07:59:02;;;;;;;3.10;2.80;;;;;;;3.43;100.00;95863.63;5071028;28;20782;-74
2022/12/29 08:01:28;;;;;;;3.97;2.40;;;;;;;3.34;100.00;95862.75;5069689;28;20431;-74
2022/12/29 08:03:55;;;;;;;3.27;2.97;;;;;;;3.34;100.00;95865.38;5053235;28;20870;-74
2022/12/29 08:06:23;;;;;;;3.50;2.50;;;;;;;3.32;100.00;95851.03;5069758;28;20800;-74
2022/12/29 08:08:53;;;;;;;5.03;2.90;;;;;;;3.39;100.00;95859.28;5069615;28;20438;-74
2022/12/29 08:11:19;;;;;;;2.60;2.23;;;;;;;3.43;100.00;95855.00;5039410;28;21028;-74
2022/12/29 08:13:46;;;;;;;3.73;2.80;;;;;;;3.64;100.00;95881.50;5080722;28;21008;-74
2022/12/29 08:16:13;;;;;;;3.27;2.83;;;;;;;3.65;100.00;95878.59;5050750;28;20960;-74
2022/12/29 08:18:39;;;;;;;2.83;2.33;;;;;;;3.52;100.00;95850.66;5058301;28;20428;-74
2022/12/29 08:21:06;;;;;;;3.23;2.80;;;;;;;3.51;100.00;95842.03;5055660;28;21020;-74
2022/12/29 08:23:33;;;;;;;3.47;3.17;;;;;;;3.59;100.00;95855.47;5052840;28;20556;-74
2022/12/29 08:26:02;;;;;;;5.70;3.40;;;;;;;3.69;100.00;95869.09;5068304;28;20513;-74
2022/12/29 08:28:29;;;;;;;3.27;2.97;;;;;;;3.81;100.00;95886.91;5052802;28;20432;-74
2022/12/29 08:31:01;;;;;;;4.20;2.70;;;;;;;3.85;100.00;95878.16;5049755;28;20461;-74
2022/12/29 08:33:28;;;;;;;3.97;2.20;;;;;;;3.85;100.00;95864.31;5059828;28;20852;-74
2022/12/29 08:36:00;;;;;;;2.80;2.20;;;;;;;3.92;100.00;95864.72;5069218;28;20489;-74
2022/12/29 08:38:28;;;;;;;2.73;2.30;;;;;;;3.93;100.00;95870.72;5063949;28;20519;-74
2022/12/29 08:40:56;;;;;;;5.53;2.70;;;;;;;3.96;100.00;95867.50;5056504;28;20443;-74
2022/12/29 08:43:23;;;;;;;2.07;1.87;;;;;;;3.99;100.00;95854.59;5056478;28;20491;-74
2022/12/29 08:45:49;;;;;;;2.80;2.17;;;;;;;4.05;100.00;95837.75;5060905;28;20950;-73
2022/12/29 08:48:19;;;;;;;1.93;1.83;;;;;;;4.12;100.00;95848.56;5073024;28;20437;-74
2022/12/29 08:50:46;;;;;;;2.87;2.23;;;;;;;4.28;100.00;95856.09;5060819;28;20950;-74
2022/12/29 08:53:13;;;;;;;4.23;2.17;;;;;;;4.23;100.00;95856.94;5056523;28;20456;-74
2022/12/29 08:55:40;;;;;;;4.30;2.70;;;;;;;4.15;100.00;95842.75;5060645;28;20426;-74
2022/12/29 08:58:06;;;;;;;4.17;2.20;;;;;;;4.28;100.00;95858.69;5056216;28;20873;-74
2022/12/29 09:00:37;;;;;;;2.37;2.17;;;;;;;4.35;100.00;95843.34;5059204;28;20823;-74
2022/12/29 09:03:03;;;;;;;11.23;6.67;;;;;;;4.33;100.00;95848.09;5072666;28;20485;-74
2022/12/29 09:05:30;;;;;;;19.23;8.90;;;;;;;4.49;100.00;95872.84;5072742;28;20800;-74
2022/12/29 09:07:57;;;;;;;10.23;4.60;;;;;;;4.41;100.00;95855.25;5072570;28;21006;-74
2022/12/29 09:10:23;;;;;;;10.60;6.20;;;;;;;4.32;100.00;95833.47;5059183;28;20864;-74
2022/12/29 09:12:50;;;;;;;10.80;6.77;;;;;;;4.48;100.00;95854.81;5073531;28;20456;-74
2022/12/29 09:15:17;;;;;;;12.00;7.83;;;;;;;4.45;100.00;95849.09;5084971;28;20477;-74
2022/12/29 09:17:44;;;;;;;9.37;6.30;;;;;;;4.61;100.00;95867.84;5054894;28;20432;-74
2022/12/29 09:20:13;;;;;;;7.03;5.37;;;;;;;4.60;100.00;95855.81;5043770;28;20436;-74
2022/12/29 09:22:40;;;;;;;5.10;3.70;;;;;;;4.72;100.00;95845.56;5073380;28;20471;-74
2022/12/29 09:25:08;;;;;;;3.20;2.90;;;;;;;5.08;100.00;95878.72;5073639;28;20424;-74
2022/12/29 09:27:36;;;;;;;3.60;3.03;;;;;;;5.07;100.00;95863.28;5060286;28;20491;-74
2022/12/29 09:30:06;;;;;;;3.47;3.17;;;;;;;5.19;100.00;95880.00;5064229;28;20945;-74
2022/12/29 09:32:33;;;;;;;7.03;3.40;;;;;;;5.29;100.00;95868.47;5048905;28;20465;-74
2022/12/29 09:35:07;;;;;;;6.13;3.73;;;;;;;5.47;100.00;95877.16;5047820;28;20439;-74
2022/12/29 09:37:34;;;;;;;9.63;2.50;;;;;;;5.54;100.00;95877.50;5041935;28;20436;-74
2022/12/29 09:40:01;;;;;;;2.40;2.20;;;;;;;5.44;100.00;95848.94;5072023;28;20439;-74
2022/12/29 09:43:01;;;;;;;2.80;2.57;;;;;;;5.54;100.00;95862.53;5058466;28;20928;-74
2022/12/29 09:45:44;;;;;;;4.83;3.17;;;;;;;5.17;100.00;95790.44;5072015;28;20924;-74
2022/12/29 09:48:23;;;;;;;4.00;2.93;;;;;;;5.67;100.00;95833.88;5062212;28;20459;-74
2022/12/29 09:50:55;;;;;;;4.70;4.30;;;;;;;5.96;100.00;95864.78;5064877;28;20425;-74
2022/12/29 09:53:28;;;;;;;5.40;2.10;;;;;;;6.06;100.00;95851.38;5065422;28;20460;-74
2022/12/29 09:55:59;;;;;;;7.23;2.73;;;;;;;5.98;100.00;95826.66;5077641;28;20436;-74
2022/12/29 09:58:36;;;;;;;2.80;2.00;;;;;;;6.15;100.00;95839.81;5070888;28;20837;-74
2022/12/29 10:01:02;;;;;;;2.50;1.83;;;;;;;6.23;100.00;95846.13;5073117;28;20500;-74
2022/12/29 10:03:55;;;;;;;3.87;3.10;;;;;;;6.51;100.00;95851.81;5076187;28;20520;-74
2022/12/29 10:06:43;;;;;;;6.10;3.50;;;;;;;6.68;100.00;95840.53;5041346;28;20850;-74
2022/12/29 10:09:35;;;;;;;3.60;3.00;;;;;;;6.92;100.00;95840.75;5060069;28;20444;-74
2022/12/29 10:12:04;;;;;;;4.53;2.37;;;;;;;7.16;100.00;95836.81;5073140;28;20547;-74
2022/12/29 10:15:08;;;;;;;2.10;1.93;;;;;;;7.35;100.00;95835.34;5070873;28;20466;-74
2022/12/29 10:17:35;;;;;;;3.07;2.77;;;;;;;7.42;100.00;95826.94;5069884;28;20420;-74
2022/12/29 10:20:31;;;;;;;2.40;2.20;;;;;;;7.34;100.00;95806.69;5065546;28;20869;-74
2022/12/29 10:23:26;;;;;;;2.60;2.33;;;;;;;7.60;100.00;95828.38;5051856;28;20465;-74
2022/12/29 10:25:56;;;;;;;2.07;1.87;;;;;;;7.68;100.00;95824.16;5069096;28;20444;-74
2022/12/29 10:28:50;;;;;;;1.93;1.73;;;;;;;7.62;100.00;95802.53;5074305;28;20475;-74
2022/12/29 10:31:22;;;;;;;2.93;2.00;;;;;;;7.50;100.00;95784.03;5060851;28;20432;-74
2022/12/29 10:33:59;;;;;;;2.30;2.10;;;;;;;7.69;100.00;95812.53;5075838;28;20468;-74
2022/12/29 10:36:40;;;;;;;4.33;3.80;;;;;;;7.64;100.00;95795.09;5052907;28;20961;-74
2022/12/29 10:39:45;;;;;;;3.10;2.43;;;;;;;7.84;100.00;95821.72;5055994;28;20444;-74
2022/12/29 10:42:37;;;;;;;2.13;1.63;;;;;;;7.79;100.00;95804.28;5010133;28;20438;-74
2022/12/29 10:45:05;;;;;;;2.93;1.73;;;;;;;7.72;100.00;95796.09;5086942;28;20428;-74
2022/12/29 10:47:45;;;;;;;3.50;2.00;;;;;;;7.85;100.00;95810.09;5054122;28;20435;-74
2022/12/29 10:50:12;;;;;;;2.73;2.10;;;;;;;7.66;100.00;95782.38;5054251;28;20475;-74
2022/12/29 10:52:40;;;;;;;2.60;1.80;;;;;;;7.83;100.00;95796.50;5060279;28;20456;-74
2022/12/29 10:55:18;;;;;;;2.83;1.90;;;;;;;7.93;100.00;95799.53;5070556;28;20992;-74
2022/12/29 10:57:46;;;;;;;2.50;2.10;;;;;;;7.69;100.00;95771.22;5067189;28;20867;-74
2022/12/29 11:00:20;;;;;;;3.10;2.80;;;;;;;7.94;100.00;95806.31;5045345;28;20475;-74
2022/12/29 11:03:13;;;;;;;2.00;1.80;;;;;;;7.80;100.00;95774.22;5071679;28;20427;-74
2022/12/29 11:06:08;;;;;;;2.00;1.80;;;;;;;7.95;100.00;95797.34;5056866;28;20468;-74
2022/12/29 11:08:45;;;;;;;2.20;2.00;;;;;;;8.17;100.00;95804.13;5054025;28;20526;-74
2022/12/29 11:11:21;;;;;;;4.30;2.00;;;;;;;8.09;100.00;95769.97;5063344;28;20547;-74
2022/12/29 11:13:50;;;;;;;2.10;1.90;;;;;;;8.33;100.00;95787.72;5071560;28;20527;-74
2022/12/29 11:16:33;;;;;;;3.37;1.90;;;;;;;8.37;100.00;95788.63;5071748;28;20452;-74
2022/12/29 11:19:01;;;;;;;4.07;3.47;;;;;;;8.39;100.00;95770.66;5057546;28;20424;-74
2022/12/29 11:21:32;;;;;;;41.93;22.17;;;;;;;8.30;100.00;95771.47;5070457;28;20479;-74
2022/12/29 11:24:04;;;;;;;41.17;21.43;;;;;;;8.47;100.00;95785.59;5059376;28;20491;-74
2022/12/29 11:26:33;;;;;;;24.53;14.43;;;;;;;8.47;100.00;95775.84;5058386;28;20463;-73
2022/12/29 11:29:10;;;;;;;64.73;40.77;;;;;;;8.58;100.00;95776.19;5061079;28;20429;-74
2022/12/29 11:31:41;;;;;;;41.80;35.43;;;;;;;8.61;100.00;95772.91;5063652;28;20498;-74
2022/12/29 11:34:16;;;;;;;4.13;3.27;;;;;;;8.83;100.00;95784.91;5045013;28;20464;-74
2022/12/29 11:36:42;;;;;;;29.53;24.67;;;;;;;8.61;100.00;95741.28;5054428;28;20860;-74
2022/12/29 11:39:29;;;;;;;44.37;39.87;;;;;;;9.03;100.00;95785.91;5073894;28;20797;-74
2022/12/29 11:41:57;;;;;;;8.60;7.80;;;;;;;8.89;100.00;95759.88;5058759;28;20425;-74
2022/12/29 11:44:26;;;;;;;8.60;7.83;;;;;;;8.98;100.00;95759.78;5073603;28;20983;-74
2022/12/29 11:46:54;;;;;;;4.93;3.10;;;;;;;9.13;100.00;95773.06;5061904;28;20471;-74
2022/12/29 11:49:24;;;;;;;9.73;6.80;;;;;;;9.19;100.00;95790.19;5067458;28;20429;-75
2022/12/29 11:51:56;;;;;;;5.63;5.07;;;;;;;8.92;100.00;95750.53;5064033;28;20456;-75
2022/12/29 11:54:30;;;;;;;3.40;2.90;;;;;;;9.17;100.00;95767.88;5040344;28;20976;-74
2022/12/29 11:56:58;;;;;;;1.50;1.20;;;;;;;9.03;100.00;95744.50;5071775;28;20417;-76
2022/12/29 11:59:29;;;;;;;3.50;2.63;;;;;;;9.22;100.00;95774.81;5072027;28;20453;-76
2022/12/29 12:01:58;;;;;;;2.57;2.37;;;;;;;9.16;100.00;95782.94;5071471;28;20424;-75
2022/12/29 12:04:30;;;;;;;2.33;2.13;;;;;;;9.10;100.00;95772.97;5081274;28;20993;-75
2022/12/29 12:07:12;;;;;;;1.57;1.47;;;;;;;9.11;100.00;95782.41;5067223;28;20527;-76
2022/12/29 12:09:46;;;;;;;4.60;2.20;;;;;;;9.08;100.00;95775.94;5045707;28;20432;-76
2022/12/29 12:12:55;;;;;;;4.33;3.23;;;;;;;9.01;100.00;95767.78;5070683;28;20531;-75
2022/12/29 12:15:39;;;;;;;2.60;2.23;;;;;;;8.84;100.00;95745.03;4984280;28;20946;-76
2022/12/29 12:18:15;;;;;;;3.40;2.43;;;;;;;9.03;100.00;95775.34;5067495;28;20434;-76
2022/12/29 12:20:54;;;;;;;5.57;3.07;;;;;;;9.03;100.00;95772.72;5063498;28;20493;-76
2022/12/29 12:23:58;;;;;;;6.30;2.50;;;;;;;8.89;100.00;95744.06;5070516;28;20457;-76
2022/12/29 12:26:48;;;;;;;6.60;2.07;;;;;;;8.90;100.00;95748.22;5056390;28;20437;-76
2022/12/29 12:29:30;;;;;;;2.67;2.43;;;;;;;8.92;100.00;95756.56;5074739;28;20452;-76